sensor_id;sensor_type;location;lat;lon;timestamp;pressure;altitude;pressure_sealevel;temperature;humidity
43818;BME280;29868;47.360;18.984;2022-08-27T00:01:59;99685.31;;;20.42;100.00
43818;BME280;29868;47.360;18.984;2022-08-27T00:04:25;99677.72;;;20.33;100.00
43818;BME280;29868;47.360;18.984;2022-08-27T00:06:50;99682.78;;;20.39;100.00
43818;BME280;29868;47.360;18.984;2022-08-27T00:09:16;99685.16;;;20.22;100.00
43818;BME280;29868;47.360;18.984;2022-08-27T00:11:41;99679.00;;;20.21;100.00
43818;BME280;29868;47.360;18.984;2022-08-27T00:14:07;99682.56;;;20.20;100.00
43818;BME280;29868;47.360;18.984;2022-08-27T00:16:32;99681.72;;;20.20;100.00
43818;BME280;29868;47.360;18.984;2022-08-27T00:18:57;99687.09;;;20.16;100.00
43818;BME280;29868;47.360;18.984;2022-08-27T00:21:23;99688.28;;;20.08;100.00
43818;BME280;29868;47.360;18.984;2022-08-27T00:23:48;99682.84;;;20.12;100.00
43818;BME280;29868;47.360;18.984;2022-08-27T00:26:15;99690.16;;;20.04;100.00
43818;BME280;29868;47.360;18.984;2022-08-27T00:28:41;99688.53;;;20.00;100.00
43818;BME280;29868;47.360;18.984;2022-08-27T00:31:08;99683.28;;;19.99;100.00
43818;BME280;29868;47.360;18.984;2022-08-27T00:33:34;99686.19;;;19.91;100.00
43818;BME280;29868;47.360;18.984;2022-08-27T00:35:59;99688.22;;;19.83;100.00
43818;BME280;29868;47.360;18.984;2022-08-27T00:38:26;99686.28;;;19.88;100.00
43818;BME280;29868;47.360;18.984;2022-08-27T00:40:51;99685.41;;;19.89;100.00
43818;BME280;29868;47.360;18.984;2022-08-27T00:43:30;99686.28;;;19.88;100.00
43818;BME280;29868;47.360;18.984;2022-08-27T00:46:02;99687.97;;;19.90;100.00
43818;BME280;29868;47.360;18.984;2022-08-27T00:48:31;99683.06;;;19.80;100.00
43818;BME280;29868;47.360;18.984;2022-08-27T00:50:59;99688.56;;;19.72;100.00
43818;BME280;29868;47.360;18.984;2022-08-27T00:53:28;99692.91;;;19.73;100.00
43818;BME280;29868;47.360;18.984;2022-08-27T00:56:17;99691.38;;;19.67;100.00
43818;BME280;29868;47.360;18.984;2022-08-27T00:58:46;99687.16;;;19.60;100.00
43818;BME280;29868;47.360;18.984;2022-08-27T01:01:15;99694.38;;;19.55;100.00
43818;BME280;29868;47.360;18.984;2022-08-27T01:03:44;99694.47;;;19.52;100.00
43818;BME280;29868;47.360;18.984;2022-08-27T01:06:13;99698.56;;;19.61;100.00
43818;BME280;29868;47.360;18.984;2022-08-27T01:08:42;99703.16;;;19.54;100.00
43818;BME280;29868;47.360;18.984;2022-08-27T01:11:08;99697.25;;;19.48;100.00
43818;BME280;29868;47.360;18.984;2022-08-27T01:13:36;99702.66;;;19.71;100.00
43818;BME280;29868;47.360;18.984;2022-08-27T01:16:01;99706.50;;;19.87;100.00
43818;BME280;29868;47.360;18.984;2022-08-27T01:18:30;99707.97;;;19.96;100.00
43818;BME280;29868;47.360;18.984;2022-08-27T01:21:24;99704.22;;;20.03;100.00
43818;BME280;29868;47.360;18.984;2022-08-27T01:24:02;99709.91;;;20.17;100.00
43818;BME280;29868;47.360;18.984;2022-08-27T01:26:31;99707.00;;;20.00;100.00
43818;BME280;29868;47.360;18.984;2022-08-27T01:28:57;99708.88;;;19.97;100.00
43818;BME280;29868;47.360;18.984;2022-08-27T01:31:23;99705.34;;;19.96;100.00
43818;BME280;29868;47.360;18.984;2022-08-27T01:33:57;99711.94;;;19.83;100.00
43818;BME280;29868;47.360;18.984;2022-08-27T01:36:23;99716.19;;;19.87;100.00
43818;BME280;29868;47.360;18.984;2022-08-27T01:38:48;99711.25;;;19.78;100.00
43818;BME280;29868;47.360;18.984;2022-08-27T01:41:14;99708.84;;;19.70;100.00
43818;BME280;29868;47.360;18.984;2022-08-27T01:43:39;99709.84;;;19.66;100.00
43818;BME280;29868;47.360;18.984;2022-08-27T01:46:05;99709.19;;;19.58;100.00
43818;BME280;29868;47.360;18.984;2022-08-27T01:48:30;99715.16;;;19.64;100.00
43818;BME280;29868;47.360;18.984;2022-08-27T01:50:56;99714.00;;;19.45;100.00
43818;BME280;29868;47.360;18.984;2022-08-27T01:53:23;99703.75;;;19.36;100.00
43818;BME280;29868;47.360;18.984;2022-08-27T01:55:51;99709.66;;;19.44;100.00
43818;BME280;29868;47.360;18.984;2022-08-27T01:58:20;99713.59;;;19.29;100.00
43818;BME280;29868;47.360;18.984;2022-08-27T02:00:49;99712.97;;;19.21;100.00
43818;BME280;29868;47.360;18.984;2022-08-27T02:03:16;99703.44;;;19.17;100.00
43818;BME280;29868;47.360;18.984;2022-08-27T02:05:46;99714.22;;;19.09;100.00
43818;BME280;29868;47.360;18.984;2022-08-27T02:08:14;99713.28;;;19.10;100.00
43818;BME280;29868;47.360;18.984;2022-08-27T02:10:41;99716.16;;;19.03;100.00
43818;BME280;29868;47.360;18.984;2022-08-27T02:13:07;99711.75;;;19.03;100.00
43818;BME280;29868;47.360;18.984;2022-08-27T02:15:33;99708.41;;;18.98;100.00
43818;BME280;29868;47.360;18.984;2022-08-27T02:18:00;99714.47;;;19.00;100.00
43818;BME280;29868;47.360;18.984;2022-08-27T02:20:26;99701.38;;;18.97;100.00
43818;BME280;29868;47.360;18.984;2022-08-27T02:22:52;99696.31;;;18.91;100.00
43818;BME280;29868;47.360;18.984;2022-08-27T02:25:17;99700.59;;;18.95;100.00
43818;BME280;29868;47.360;18.984;2022-08-27T02:27:47;99711.13;;;18.95;100.00
43818;BME280;29868;47.360;18.984;2022-08-27T02:30:18;99708.63;;;18.90;100.00
43818;BME280;29868;47.360;18.984;2022-08-27T02:32:45;99709.47;;;18.91;100.00
43818;BME280;29868;47.360;18.984;2022-08-27T02:35:14;99710.34;;;18.90;100.00
43818;BME280;29868;47.360;18.984;2022-08-27T02:37:41;99711.28;;;18.89;100.00
43818;BME280;29868;47.360;18.984;2022-08-27T02:40:07;99705.09;;;18.90;100.00
43818;BME280;29868;47.360;18.984;2022-08-27T02:42:34;99704.28;;;18.88;100.00
43818;BME280;29868;47.360;18.984;2022-08-27T02:44:59;99705.28;;;18.84;100.00
43818;BME280;29868;47.360;18.984;2022-08-27T02:47:25;99701.91;;;18.79;100.00
43818;BME280;29868;47.360;18.984;2022-08-27T02:49:50;99708.16;;;18.76;100.00
43818;BME280;29868;47.360;18.984;2022-08-27T02:52:15;99714.47;;;18.67;100.00
43818;BME280;29868;47.360;18.984;2022-08-27T02:54:42;99714.59;;;18.64;100.00
43818;BME280;29868;47.360;18.984;2022-08-27T02:57:07;99712.69;;;18.69;100.00
43818;BME280;29868;47.360;18.984;2022-08-27T02:59:33;99708.34;;;18.67;100.00
43818;BME280;29868;47.360;18.984;2022-08-27T03:01:59;99709.16;;;18.70;100.00
43818;BME280;29868;47.360;18.984;2022-08-27T03:04:24;99711.84;;;18.67;100.00
43818;BME280;29868;47.360;18.984;2022-08-27T03:06:52;99716.06;;;18.75;100.00
43818;BME280;29868;47.360;18.984;2022-08-27T03:09:18;99710.19;;;18.63;100.00
43818;BME280;29868;47.360;18.984;2022-08-27T03:11:43;99705.06;;;18.60;100.00
43818;BME280;29868;47.360;18.984;2022-08-27T03:14:09;99711.53;;;18.47;100.00
43818;BME280;29868;47.360;18.984;2022-08-27T03:16:36;99708.06;;;18.46;100.00
43818;BME280;29868;47.360;18.984;2022-08-27T03:19:03;99711.53;;;18.47;100.00
43818;BME280;29868;47.360;18.984;2022-08-27T03:21:30;99713.81;;;18.59;100.00
43818;BME280;29868;47.360;18.984;2022-08-27T03:23:56;99712.25;;;18.54;100.00
43818;BME280;29868;47.360;18.984;2022-08-27T03:26:21;99714.09;;;18.50;100.00
43818;BME280;29868;47.360;18.984;2022-08-27T03:28:47;99710.59;;;18.50;100.00
43818;BME280;29868;47.360;18.984;2022-08-27T03:31:15;99715.00;;;18.49;100.00
43818;BME280;29868;47.360;18.984;2022-08-27T03:33:44;99713.38;;;18.45;100.00
43818;BME280;29868;47.360;18.984;2022-08-27T03:36:09;99710.63;;;18.48;100.00
43818;BME280;29868;47.360;18.984;2022-08-27T03:38:35;99706.97;;;18.54;100.00
43818;BME280;29868;47.360;18.984;2022-08-27T03:41:01;99714.13;;;18.48;100.00
43818;BME280;29868;47.360;18.984;2022-08-27T03:43:28;99715.03;;;18.47;100.00
43818;BME280;29868;47.360;18.984;2022-08-27T03:45:54;99711.66;;;18.42;100.00
43818;BME280;29868;47.360;18.984;2022-08-27T03:48:19;99709.91;;;18.43;100.00
43818;BME280;29868;47.360;18.984;2022-08-27T03:50:47;99714.22;;;18.45;100.00
43818;BME280;29868;47.360;18.984;2022-08-27T03:53:13;99708.25;;;18.39;100.00
43818;BME280;29868;47.360;18.984;2022-08-27T03:55:39;99715.31;;;18.37;100.00
43818;BME280;29868;47.360;18.984;2022-08-27T03:58:07;99715.22;;;18.40;100.00
43818;BME280;29868;47.360;18.984;2022-08-27T04:00:32;99710.03;;;18.38;100.00
43818;BME280;29868;47.360;18.984;2022-08-27T04:02:58;99719.69;;;18.38;100.00
43818;BME280;29868;47.360;18.984;2022-08-27T04:05:23;99711.78;;;18.38;100.00
43818;BME280;29868;47.360;18.984;2022-08-27T04:07:48;99712.59;;;18.41;100.00
43818;BME280;29868;47.360;18.984;2022-08-27T04:10:16;99720.34;;;18.46;100.00
43818;BME280;29868;47.360;18.984;2022-08-27T04:12:41;99721.81;;;18.56;100.00
43818;BME280;29868;47.360;18.984;2022-08-27T04:15:08;99720.84;;;18.60;100.00
43818;BME280;29868;47.360;18.984;2022-08-27T04:17:34;99713.03;;;18.57;100.00
43818;BME280;29868;47.360;18.984;2022-08-27T04:20:00;99724.13;;;18.67;100.00
43818;BME280;29868;47.360;18.984;2022-08-27T04:22:26;99716.16;;;18.70;100.00
43818;BME280;29868;47.360;18.984;2022-08-27T04:24:53;99717.63;;;18.82;100.00
43818;BME280;29868;47.360;18.984;2022-08-27T04:27:19;99720.00;;;18.91;100.00
43818;BME280;29868;47.360;18.984;2022-08-27T04:29:46;99719.78;;;18.99;100.00
43818;BME280;29868;47.360;18.984;2022-08-27T04:32:12;99725.53;;;19.11;100.00
43818;BME280;29868;47.360;18.984;2022-08-27T04:34:38;99716.56;;;19.18;100.00
43818;BME280;29868;47.360;18.984;2022-08-27T04:37:04;99723.06;;;19.35;100.00
43818;BME280;29868;47.360;18.984;2022-08-27T04:39:30;99719.34;;;19.42;100.00
43818;BME280;29868;47.360;18.984;2022-08-27T04:41:58;99721.34;;;19.63;100.00
43818;BME280;29868;47.360;18.984;2022-08-27T04:44:27;99726.13;;;19.79;100.00
43818;BME280;29868;47.360;18.984;2022-08-27T04:46:58;99730.22;;;19.87;100.00
43818;BME280;29868;47.360;18.984;2022-08-27T04:49:24;99720.25;;;20.24;100.00
43818;BME280;29868;47.360;18.984;2022-08-27T04:51:51;99717.66;;;20.97;100.00
43818;BME280;29868;47.360;18.984;2022-08-27T04:54:16;99727.53;;;21.61;100.00
43818;BME280;29868;47.360;18.984;2022-08-27T04:56:42;99730.63;;;22.37;100.00
43818;BME280;29868;47.360;18.984;2022-08-27T04:59:08;99729.03;;;23.13;100.00
43818;BME280;29868;47.360;18.984;2022-08-27T05:01:36;99732.88;;;23.81;100.00
43818;BME280;29868;47.360;18.984;2022-08-27T05:04:02;99743.56;;;24.68;100.00
43818;BME280;29868;47.360;18.984;2022-08-27T05:06:28;99740.72;;;25.37;100.00
43818;BME280;29868;47.360;18.984;2022-08-27T05:08:54;99747.69;;;25.56;100.00
43818;BME280;29868;47.360;18.984;2022-08-27T05:11:22;99745.44;;;26.11;100.00
43818;BME280;29868;47.360;18.984;2022-08-27T05:13:48;99751.50;;;26.88;100.00
43818;BME280;29868;47.360;18.984;2022-08-27T05:16:19;99748.16;;;27.56;100.00
43818;BME280;29868;47.360;18.984;2022-08-27T05:18:46;99755.84;;;28.02;100.00
43818;BME280;29868;47.360;18.984;2022-08-27T05:23:42;99760.94;;;28.84;100.00
43818;BME280;29868;47.360;18.984;2022-08-27T05:26:08;99766.16;;;29.24;100.00
43818;BME280;29868;47.360;18.984;2022-08-27T05:28:34;99767.56;;;29.30;100.00
43818;BME280;29868;47.360;18.984;2022-08-27T05:31:05;99766.66;;;30.16;100.00
43818;BME280;29868;47.360;18.984;2022-08-27T05:33:32;99769.56;;;30.37;100.00
43818;BME280;29868;47.360;18.984;2022-08-27T05:35:59;99763.97;;;30.97;100.00
43818;BME280;29868;47.360;18.984;2022-08-27T05:38:26;99767.03;;;31.15;82.02
43818;BME280;29868;47.360;18.984;2022-08-27T05:43:28;99770.44;;;31.62;75.76
43818;BME280;29868;47.360;18.984;2022-08-27T05:45:54;99776.88;;;32.26;74.09
43818;BME280;29868;47.360;18.984;2022-08-27T05:48:19;99772.22;;;32.81;62.49
43818;BME280;29868;47.360;18.984;2022-08-27T05:50:45;99769.25;;;32.42;56.32
43818;BME280;29868;47.360;18.984;2022-08-27T05:53:11;99772.19;;;32.28;55.38
43818;BME280;29868;47.360;18.984;2022-08-27T05:55:39;99770.56;;;32.68;53.78
43818;BME280;29868;47.360;18.984;2022-08-27T05:58:06;99767.16;;;32.13;54.03
43818;BME280;29868;47.360;18.984;2022-08-27T06:00:35;99773.31;;;32.57;51.14
43818;BME280;29868;47.360;18.984;2022-08-27T06:03:19;99774.59;;;32.84;49.62
43818;BME280;29868;47.360;18.984;2022-08-27T06:05:44;99782.38;;;32.98;51.17
43818;BME280;29868;47.360;18.984;2022-08-27T06:08:10;99783.63;;;33.55;45.71
43818;BME280;29868;47.360;18.984;2022-08-27T06:10:39;99782.31;;;34.38;41.38
43818;BME280;29868;47.360;18.984;2022-08-27T06:13:05;99787.03;;;33.27;42.42
43818;BME280;29868;47.360;18.984;2022-08-27T06:15:30;99783.56;;;31.99;44.02
43818;BME280;29868;47.360;18.984;2022-08-27T06:17:56;99783.09;;;32.58;43.97
43818;BME280;29868;47.360;18.984;2022-08-27T06:20:21;99779.50;;;33.51;43.05
43818;BME280;29868;47.360;18.984;2022-08-27T06:22:48;99787.63;;;33.61;40.85
43818;BME280;29868;47.360;18.984;2022-08-27T06:25:13;99791.47;;;33.68;41.80
43818;BME280;29868;47.360;18.984;2022-08-27T06:27:38;99785.13;;;33.88;40.52
43818;BME280;29868;47.360;18.984;2022-08-27T06:30:04;99791.91;;;33.83;39.25
43818;BME280;29868;47.360;18.984;2022-08-27T06:32:30;99793.13;;;34.68;39.38
43818;BME280;29868;47.360;18.984;2022-08-27T06:34:55;99802.84;;;33.91;37.88
43818;BME280;29868;47.360;18.984;2022-08-27T06:37:21;99799.59;;;33.87;38.07
43818;BME280;29868;47.360;18.984;2022-08-27T06:39:46;99815.41;;;33.31;38.26
43818;BME280;29868;47.360;18.984;2022-08-27T06:42:12;99813.41;;;34.13;37.80
43818;BME280;29868;47.360;18.984;2022-08-27T06:44:37;99817.94;;;34.42;37.03
43818;BME280;29868;47.360;18.984;2022-08-27T06:47:02;99813.19;;;33.86;37.12
43818;BME280;29868;47.360;18.984;2022-08-27T06:49:28;99798.91;;;32.08;39.35
43818;BME280;29868;47.360;18.984;2022-08-27T06:51:54;99808.38;;;32.23;39.11
43818;BME280;29868;47.360;18.984;2022-08-27T06:54:19;99814.56;;;32.03;39.65
43818;BME280;29868;47.360;18.984;2022-08-27T06:56:45;99813.63;;;31.59;41.50
43818;BME280;29868;47.360;18.984;2022-08-27T06:59:13;99813.94;;;30.04;43.21
43818;BME280;29868;47.360;18.984;2022-08-27T07:01:42;99811.41;;;30.26;43.01
43818;BME280;29868;47.360;18.984;2022-08-27T07:04:11;99813.25;;;29.01;46.04
43818;BME280;29868;47.360;18.984;2022-08-27T07:06:38;99817.19;;;28.96;46.04
43818;BME280;29868;47.360;18.984;2022-08-27T07:09:04;99816.56;;;29.30;45.91
43818;BME280;29868;47.360;18.984;2022-08-27T07:11:31;99813.63;;;28.57;46.02
43818;BME280;29868;47.360;18.984;2022-08-27T07:13:57;99815.91;;;28.09;48.89
43818;BME280;29868;47.360;18.984;2022-08-27T07:16:25;99825.41;;;27.86;49.95
43818;BME280;29868;47.360;18.984;2022-08-27T07:18:53;99823.72;;;28.12;49.30
43818;BME280;29868;47.360;18.984;2022-08-27T07:21:19;99821.50;;;27.63;51.10
43818;BME280;29868;47.360;18.984;2022-08-27T07:23:46;99826.06;;;27.89;50.58
43818;BME280;29868;47.360;18.984;2022-08-27T07:26:13;99820.53;;;28.20;50.47
43818;BME280;29868;47.360;18.984;2022-08-27T07:28:41;99826.56;;;28.36;51.57
43818;BME280;29868;47.360;18.984;2022-08-27T07:31:09;99828.91;;;28.01;50.82
43818;BME280;29868;47.360;18.984;2022-08-27T07:33:38;99834.09;;;28.17;50.01
43818;BME280;29868;47.360;18.984;2022-08-27T07:36:05;99835.94;;;28.56;50.02
43818;BME280;29868;47.360;18.984;2022-08-27T07:38:31;99833.00;;;28.73;49.58
43818;BME280;29868;47.360;18.984;2022-08-27T07:40:57;99836.06;;;28.67;48.42
43818;BME280;29868;47.360;18.984;2022-08-27T07:43:22;99841.13;;;28.18;50.90
43818;BME280;29868;47.360;18.984;2022-08-27T07:46:06;99830.72;;;28.00;49.99
43818;BME280;29868;47.360;18.984;2022-08-27T07:48:32;99823.75;;;28.25;52.38
43818;BME280;29868;47.360;18.984;2022-08-27T07:51:01;99827.78;;;27.91;51.51
43818;BME280;29868;47.360;18.984;2022-08-27T07:53:33;99833.53;;;27.84;51.26
43818;BME280;29868;47.360;18.984;2022-08-27T07:56:06;99831.44;;;27.75;52.92
43818;BME280;29868;47.360;18.984;2022-08-27T07:58:32;99830.25;;;27.65;52.87
43818;BME280;29868;47.360;18.984;2022-08-27T08:00:58;99830.06;;;27.68;52.56
43818;BME280;29868;47.360;18.984;2022-08-27T08:03:24;99829.31;;;27.66;51.96
43818;BME280;29868;47.360;18.984;2022-08-27T08:05:49;99826.25;;;27.86;53.62
43818;BME280;29868;47.360;18.984;2022-08-27T08:08:18;99828.44;;;27.94;52.06
43818;BME280;29868;47.360;18.984;2022-08-27T08:10:43;99821.53;;;28.31;51.62
43818;BME280;29868;47.360;18.984;2022-08-27T08:13:09;99822.34;;;28.19;51.23
43818;BME280;29868;47.360;18.984;2022-08-27T08:15:34;99821.06;;;28.39;51.32
43818;BME280;29868;47.360;18.984;2022-08-27T08:18:00;99828.50;;;28.86;50.70
43818;BME280;29868;47.360;18.984;2022-08-27T08:20:25;99833.16;;;29.10;49.10
43818;BME280;29868;47.360;18.984;2022-08-27T08:22:51;99832.84;;;29.40;49.46
43818;BME280;29868;47.360;18.984;2022-08-27T08:25:16;99838.06;;;29.42;49.20
43818;BME280;29868;47.360;18.984;2022-08-27T08:27:42;99826.16;;;29.71;48.09
43818;BME280;29868;47.360;18.984;2022-08-27T08:30:09;99839.66;;;29.57;49.85
43818;BME280;29868;47.360;18.984;2022-08-27T08:32:34;99836.31;;;29.66;48.27
43818;BME280;29868;47.360;18.984;2022-08-27T08:35:00;99837.09;;;29.43;47.51
43818;BME280;29868;47.360;18.984;2022-08-27T08:37:26;99834.63;;;30.02;49.07
43818;BME280;29868;47.360;18.984;2022-08-27T08:39:52;99833.44;;;29.69;47.43
43818;BME280;29868;47.360;18.984;2022-08-27T08:45:29;99843.56;;;29.90;46.94
43818;BME280;29868;47.360;18.984;2022-08-27T08:48:06;99844.03;;;30.20;46.60
43818;BME280;29868;47.360;18.984;2022-08-27T08:50:56;99840.16;;;30.24;46.93
43818;BME280;29868;47.360;18.984;2022-08-27T08:53:40;99837.19;;;30.16;45.46
43818;BME280;29868;47.360;18.984;2022-08-27T08:56:10;99840.66;;;29.93;46.34
43818;BME280;29868;47.360;18.984;2022-08-27T08:58:47;99837.47;;;30.24;45.56
43818;BME280;29868;47.360;18.984;2022-08-27T09:01:16;99840.69;;;30.41;45.11
43818;BME280;29868;47.360;18.984;2022-08-27T09:03:50;99843.44;;;30.52;43.67
43818;BME280;29868;47.360;18.984;2022-08-27T09:08:44;99841.22;;;30.46;43.80
43818;BME280;29868;47.360;18.984;2022-08-27T09:13:58;99835.63;;;30.49;42.86
43818;BME280;29868;47.360;18.984;2022-08-27T09:16:26;99839.19;;;30.85;42.32
43818;BME280;29868;47.360;18.984;2022-08-27T09:18:52;99827.22;;;30.77;41.82
43818;BME280;29868;47.360;18.984;2022-08-27T09:24:13;99834.00;;;31.28;42.71
43818;BME280;29868;47.360;18.984;2022-08-27T09:26:41;99831.72;;;31.35;44.72
43818;BME280;29868;47.360;18.984;2022-08-27T09:29:10;99825.59;;;31.44;40.58
43818;BME280;29868;47.360;18.984;2022-08-27T09:32:02;99821.66;;;31.93;42.52
43818;BME280;29868;47.360;18.984;2022-08-27T09:34:40;99815.84;;;31.88;39.70
43818;BME280;29868;47.360;18.984;2022-08-27T09:37:13;99815.03;;;32.08;41.55
43818;BME280;29868;47.360;18.984;2022-08-27T09:42:41;99823.88;;;31.88;36.42
43818;BME280;29868;47.360;18.984;2022-08-27T09:45:18;99812.13;;;32.00;40.69
43818;BME280;29868;47.360;18.984;2022-08-27T09:47:48;99813.28;;;31.75;37.68
43818;BME280;29868;47.360;18.984;2022-08-27T09:50:18;99821.78;;;32.03;39.50
43818;BME280;29868;47.360;18.984;2022-08-27T09:57:59;99817.13;;;32.05;38.26
43818;BME280;29868;47.360;18.984;2022-08-27T10:00:38;99822.19;;;31.87;34.38
43818;BME280;29868;47.360;18.984;2022-08-27T10:03:05;99824.25;;;31.72;35.60
43818;BME280;29868;47.360;18.984;2022-08-27T10:05:37;99820.09;;;31.79;36.55
43818;BME280;29868;47.360;18.984;2022-08-27T10:10:36;99819.13;;;32.23;36.52
43818;BME280;29868;47.360;18.984;2022-08-27T10:13:11;99813.75;;;32.23;34.36
43818;BME280;29868;47.360;18.984;2022-08-27T10:16:08;99809.31;;;32.34;36.88
43818;BME280;29868;47.360;18.984;2022-08-27T10:18:51;99813.25;;;32.30;37.73
43818;BME280;29868;47.360;18.984;2022-08-27T10:21:43;99816.28;;;32.48;34.54
43818;BME280;29868;47.360;18.984;2022-08-27T10:30:05;99815.31;;;32.69;33.08
43818;BME280;29868;47.360;18.984;2022-08-27T10:35:24;99808.69;;;32.94;34.30
43818;BME280;29868;47.360;18.984;2022-08-27T10:46:41;99813.69;;;32.88;31.48
43818;BME280;29868;47.360;18.984;2022-08-27T10:49:29;99809.38;;;32.76;30.49
43818;BME280;29868;47.360;18.984;2022-08-27T10:52:04;99812.84;;;32.87;31.38
43818;BME280;29868;47.360;18.984;2022-08-27T10:55:10;99815.16;;;33.13;31.05
43818;BME280;29868;47.360;18.984;2022-08-27T11:00:23;99815.06;;;33.24;31.86
43818;BME280;29868;47.360;18.984;2022-08-27T11:02:52;99806.84;;;33.26;31.01
43818;BME280;29868;47.360;18.984;2022-08-27T11:08:00;99805.84;;;33.48;29.40
43818;BME280;29868;47.360;18.984;2022-08-27T11:10:32;99804.06;;;33.67;32.11
43818;BME280;29868;47.360;18.984;2022-08-27T11:13:03;99801.38;;;33.67;31.08
43818;BME280;29868;47.360;18.984;2022-08-27T11:15:33;99803.91;;;33.59;30.93
43818;BME280;29868;47.360;18.984;2022-08-27T11:18:04;99802.19;;;33.58;30.63
43818;BME280;29868;47.360;18.984;2022-08-27T11:20:40;99806.22;;;33.43;29.33
43818;BME280;29868;47.360;18.984;2022-08-27T11:23:12;99798.34;;;33.51;30.13
43818;BME280;29868;47.360;18.984;2022-08-27T11:25:44;99795.97;;;33.67;31.66
43818;BME280;29868;47.360;18.984;2022-08-27T11:28:17;99794.28;;;33.57;30.20
43818;BME280;29868;47.360;18.984;2022-08-27T11:31:02;99798.66;;;33.67;31.01
43818;BME280;29868;47.360;18.984;2022-08-27T11:33:56;99794.28;;;33.66;28.06
43818;BME280;29868;47.360;18.984;2022-08-27T11:44:24;99789.97;;;32.93;28.58
43818;BME280;29868;47.360;18.984;2022-08-27T11:46:54;99793.56;;;33.03;28.13
43818;BME280;29868;47.360;18.984;2022-08-27T11:49:30;99792.13;;;33.30;29.84
43818;BME280;29868;47.360;18.984;2022-08-27T11:52:05;99772.06;;;33.34;28.27
43818;BME280;29868;47.360;18.984;2022-08-27T11:55:11;99774.63;;;33.45;30.43
43818;BME280;29868;47.360;18.984;2022-08-27T11:57:37;99771.84;;;33.56;29.80
43818;BME280;29868;47.360;18.984;2022-08-27T12:02:42;99774.44;;;33.67;27.60
43818;BME280;29868;47.360;18.984;2022-08-27T12:05:38;99766.94;;;33.71;28.28
43818;BME280;29868;47.360;18.984;2022-08-27T12:22:07;99754.88;;;33.65;28.41
43818;BME280;29868;47.360;18.984;2022-08-27T12:24:27;99750.38;;;33.85;29.48
43818;BME280;29868;47.360;18.984;2022-08-27T12:27:47;99746.38;;;33.70;28.81
43818;BME280;29868;47.360;18.984;2022-08-27T12:29:47;99748.06;;;33.71;28.81
43818;BME280;29868;47.360;18.984;2022-08-27T12:37:27;99741.44;;;33.85;28.01
43818;BME280;29868;47.360;18.984;2022-08-27T12:39:55;99745.88;;;34.05;29.00
43818;BME280;29868;47.360;18.984;2022-08-27T12:42:21;99736.09;;;34.04;28.15
43818;BME280;29868;47.360;18.984;2022-08-27T12:44:53;99735.91;;;33.96;27.13
43818;BME280;29868;47.360;18.984;2022-08-27T12:47:18;99725.41;;;33.93;27.33
43818;BME280;29868;47.360;18.984;2022-08-27T12:49:45;99731.13;;;34.19;28.34
43818;BME280;29868;47.360;18.984;2022-08-27T12:57:33;99724.59;;;34.22;29.26
43818;BME280;29868;47.360;18.984;2022-08-27T13:05:04;99719.50;;;33.99;30.72
43818;BME280;29868;47.360;18.984;2022-08-27T13:07:33;99717.38;;;34.22;29.48
43818;BME280;29868;47.360;18.984;2022-08-27T13:10:12;99722.88;;;34.01;28.26
43818;BME280;29868;47.360;18.984;2022-08-27T13:12:38;99722.06;;;34.10;29.34
43818;BME280;29868;47.360;18.984;2022-08-27T13:15:06;99726.84;;;34.36;29.32
43818;BME280;29868;47.360;18.984;2022-08-27T13:17:37;99719.06;;;34.52;30.90
43818;BME280;29868;47.360;18.984;2022-08-27T13:20:03;99715.88;;;34.47;30.13
43818;BME280;29868;47.360;18.984;2022-08-27T13:22:35;99713.78;;;34.51;30.83
43818;BME280;29868;47.360;18.984;2022-08-27T13:25:05;99715.75;;;34.58;30.03
43818;BME280;29868;47.360;18.984;2022-08-27T13:27:34;99720.00;;;34.61;30.27
43818;BME280;29868;47.360;18.984;2022-08-27T13:30:08;99719.47;;;34.57;30.08
43818;BME280;29868;47.360;18.984;2022-08-27T13:32:36;99723.00;;;34.48;31.62
43818;BME280;29868;47.360;18.984;2022-08-27T13:35:02;99720.34;;;34.29;30.85
43818;BME280;29868;47.360;18.984;2022-08-27T13:37:42;99722.59;;;34.33;28.69
43818;BME280;29868;47.360;18.984;2022-08-27T13:40:09;99719.47;;;34.38;29.98
43818;BME280;29868;47.360;18.984;2022-08-27T13:42:40;99717.06;;;34.35;30.14
43818;BME280;29868;47.360;18.984;2022-08-27T13:45:08;99718.91;;;34.44;31.27
43818;BME280;29868;47.360;18.984;2022-08-27T13:47:45;99726.28;;;34.52;31.26
43818;BME280;29868;47.360;18.984;2022-08-27T13:50:32;99723.44;;;34.53;31.18
43818;BME280;29868;47.360;18.984;2022-08-27T13:53:07;99722.03;;;34.49;30.79
43818;BME280;29868;47.360;18.984;2022-08-27T13:55:53;99719.91;;;34.24;32.27
43818;BME280;29868;47.360;18.984;2022-08-27T13:58:26;99714.22;;;34.17;31.13
43818;BME280;29868;47.360;18.984;2022-08-27T14:00:53;99715.81;;;34.10;30.12
43818;BME280;29868;47.360;18.984;2022-08-27T14:03:48;99717.38;;;34.22;31.22
43818;BME280;29868;47.360;18.984;2022-08-27T14:09:09;99712.25;;;34.19;32.07
43818;BME280;29868;47.360;18.984;2022-08-27T14:11:34;99708.16;;;34.15;33.16
43818;BME280;29868;47.360;18.984;2022-08-27T14:14:00;99711.28;;;34.10;30.43
43818;BME280;29868;47.360;18.984;2022-08-27T14:19:02;99710.69;;;34.17;31.67
43818;BME280;29868;47.360;18.984;2022-08-27T14:21:29;99707.84;;;34.28;33.06
43818;BME280;29868;47.360;18.984;2022-08-27T14:23:55;99708.97;;;34.35;30.34
43818;BME280;29868;47.360;18.984;2022-08-27T14:26:21;99707.03;;;34.18;31.29
43818;BME280;29868;47.360;18.984;2022-08-27T14:28:47;99706.16;;;34.07;31.93
43818;BME280;29868;47.360;18.984;2022-08-27T14:31:12;99713.81;;;34.22;31.53